Time;durP1;ratioP1;P1;durP2;ratioP2;P2;SDS_P1;SDS_P2;PMS_P1;PMS_P2;Temp;Humidity;BMP_temperature;BMP_pressure;BME280_temperature;BME280_humidity;BME280_pressure;Samples;Min_cycle;Max_cycle;Signal;HPM_P1;HPM_P2
2023/07/20 00:01:06;;;;;;;11.02;5.32;;;;;;;;;;5079834;28;20547;-68
2023/07/20 00:03:33;;;;;;;11.52;5.05;;;;;;;;;;5066794;28;21042;-67
2023/07/20 00:06:00;;;;;;;10.70;5.30;;;;;;;;;;5072027;28;20056;-68
2023/07/20 00:08:27;;;;;;;10.20;5.18;;;;;;;;;;5070519;28;20436;-68
2023/07/20 00:10:54;;;;;;;11.25;5.22;;;;;;;;;;5071274;28;20052;-67
2023/07/20 00:13:21;;;;;;;10.57;5.10;;;;;;;;;;5068427;28;20045;-67
2023/07/20 00:15:49;;;;;;;8.38;4.82;;;;;;;;;;5073194;28;20518;-67
2023/07/20 00:18:16;;;;;;;8.25;4.90;;;;;;;;;;5071340;28;20052;-67
2023/07/20 00:20:43;;;;;;;9.27;4.57;;;;;;;;;;5086941;28;20079;-67
2023/07/20 00:23:11;;;;;;;10.75;4.15;;;;;;;;;;5073950;28;20045;-67
2023/07/20 00:25:38;;;;;;;9.30;4.13;;;;;;;;;;5079253;28;20041;-67
2023/07/20 00:28:05;;;;;;;5.70;3.50;;;;;;;;;;5080233;28;20075;-67
2023/07/20 00:30:32;;;;;;;10.38;3.20;;;;;;;;;;5081564;28;20081;-67
2023/07/20 00:33:00;;;;;;;5.13;3.03;;;;;;;;;;5076294;28;20048;-67
2023/07/20 00:35:27;;;;;;;6.85;2.80;;;;;;;;;;5078447;28;20776;-67
2023/07/20 00:37:54;;;;;;;6.28;3.00;;;;;;;;;;5032806;28;20860;-68
2023/07/20 00:40:21;;;;;;;3.35;2.38;;;;;;;;;;5054677;28;20187;-67
2023/07/20 00:42:49;;;;;;;7.07;2.10;;;;;;;;;;5055080;28;20266;-67
2023/07/20 00:45:16;;;;;;;5.72;2.20;;;;;;;;;;5055118;28;21150;-67
2023/07/20 00:47:43;;;;;;;10.40;2.30;;;;;;;;;;5059261;28;20056;-67
2023/07/20 00:50:11;;;;;;;3.35;2.10;;;;;;;;;;5065030;28;20053;-67
2023/07/20 00:52:41;;;;;;;3.50;2.00;;;;;;;;;;5075397;28;20566;-67
2023/07/20 00:55:09;;;;;;;2.50;2.10;;;;;;;;;;5070485;28;20509;-67
2023/07/20 00:57:37;;;;;;;3.88;2.00;;;;;;;;;;5077564;28;20052;-67
2023/07/20 01:00:04;;;;;;;4.80;2.17;;;;;;;;;;5072722;28;20044;-67
2023/07/20 01:02:31;;;;;;;2.38;1.80;;;;;;;;;;5079807;28;20049;-67
2023/07/20 01:04:59;;;;;;;3.80;2.38;;;;;;;;;;5077140;28;20867;-67
2023/07/20 01:07:30;;;;;;;3.83;2.33;;;;;;;;;;5066716;28;20045;-67
2023/07/20 01:10:17;;;;;;;5.20;2.60;;;;;;;;;;5083109;28;20521;-67
2023/07/20 01:12:47;;;;;;;2.58;2.00;;;;;;;;;;5079898;28;20451;-67
2023/07/20 01:15:14;;;;;;;4.18;2.38;;;;;;;;;;5071613;28;20056;-67
2023/07/20 01:17:41;;;;;;;5.10;2.50;;;;;;;;;;5077147;28;20045;-67
2023/07/20 01:20:10;;;;;;;5.43;2.08;;;;;;;;;;5076391;28;20051;-67
2023/07/20 01:22:40;;;;;;;3.35;2.30;;;;;;;;;;5079271;28;20651;-67
2023/07/20 01:25:12;;;;;;;4.88;2.33;;;;;;;;;;5081569;28;20048;-67
2023/07/20 01:27:54;;;;;;;3.78;2.05;;;;;;;;;;5071666;28;20053;-67
2023/07/20 01:30:40;;;;;;;4.20;2.28;;;;;;;;;;5081945;28;20121;-67
2023/07/20 01:33:08;;;;;;;3.10;2.22;;;;;;;;;;5054287;28;20053;-69
2023/07/20 01:35:36;;;;;;;4.65;2.20;;;;;;;;;;5054682;28;21063;-67
2023/07/20 01:38:04;;;;;;;4.32;2.20;;;;;;;;;;5055025;28;20112;-67
2023/07/20 01:40:31;;;;;;;2.72;2.00;;;;;;;;;;5035202;28;20744;-67
2023/07/20 01:42:58;;;;;;;3.83;1.98;;;;;;;;;;5072601;28;20527;-67
2023/07/20 01:45:26;;;;;;;3.00;2.30;;;;;;;;;;5074944;28;20552;-67
2023/07/20 01:47:53;;;;;;;5.38;2.35;;;;;;;;;;5074877;28;20148;-67
2023/07/20 01:50:21;;;;;;;3.83;2.53;;;;;;;;;;5079217;28;20041;-67
2023/07/20 01:52:48;;;;;;;5.82;2.22;;;;;;;;;;5077386;28;20567;-67
2023/07/20 01:55:16;;;;;;;3.65;2.20;;;;;;;;;;5074596;28;20088;-67
2023/07/20 01:57:43;;;;;;;3.50;2.25;;;;;;;;;;5086367;28;20047;-67
2023/07/20 02:00:11;;;;;;;4.00;2.47;;;;;;;;;;5080533;28;20063;-68
2023/07/20 02:02:38;;;;;;;8.93;2.75;;;;;;;;;;5076967;28;20048;-68
2023/07/20 02:05:06;;;;;;;3.53;1.80;;;;;;;;;;5069378;28;20053;-67
2023/07/20 02:07:33;;;;;;;2.55;1.77;;;;;;;;;;5082355;28;20106;-68
2023/07/20 02:10:01;;;;;;;2.97;1.60;;;;;;;;;;5066757;28;20501;-68
2023/07/20 02:12:28;;;;;;;3.38;1.70;;;;;;;;;;5070843;28;20500;-67
2023/07/20 02:14:55;;;;;;;2.50;1.85;;;;;;;;;;5076538;28;20052;-68
2023/07/20 02:17:22;;;;;;;2.03;1.75;;;;;;;;;;5074968;28;20045;-67
2023/07/20 02:19:59;;;;;;;2.75;1.77;;;;;;;;;;5073900;28;20081;-68
2023/07/20 02:22:27;;;;;;;2.75;1.70;;;;;;;;;;5076855;28;20052;-68
2023/07/20 02:24:54;;;;;;;2.67;1.83;;;;;;;;;;5087688;28;20051;-68
2023/07/20 02:27:21;;;;;;;2.03;1.80;;;;;;;;;;5077013;28;20047;-68
2023/07/20 02:29:50;;;;;;;2.65;1.98;;;;;;;;;;5053438;28;20889;-68
2023/07/20 02:32:17;;;;;;;5.57;1.80;;;;;;;;;;5062442;28;20047;-68
2023/07/20 02:34:44;;;;;;;2.97;1.77;;;;;;;;;;5072689;28;20139;-67
2023/07/20 02:37:12;;;;;;;2.83;1.60;;;;;;;;;;5077371;28;20165;-68
2023/07/20 02:39:40;;;;;;;4.43;2.05;;;;;;;;;;5064737;28;20619;-68
2023/07/20 02:42:07;;;;;;;1.92;1.70;;;;;;;;;;5081508;28;20127;-68
2023/07/20 02:44:34;;;;;;;2.58;1.75;;;;;;;;;;5072436;28;20098;-68
2023/07/20 02:47:02;;;;;;;5.68;1.80;;;;;;;;;;5083459;28;20055;-68
2023/07/20 02:49:29;;;;;;;2.97;1.90;;;;;;;;;;5079231;28;22163;-68
2023/07/20 02:51:56;;;;;;;3.10;1.90;;;;;;;;;;5074503;28;20500;-68
2023/07/20 02:54:24;;;;;;;2.35;1.73;;;;;;;;;;5081465;28;20552;-68
2023/07/20 02:56:51;;;;;;;3.08;1.80;;;;;;;;;;5070389;28;20061;-68
2023/07/20 02:59:18;;;;;;;2.95;1.80;;;;;;;;;;5085987;28;20074;-68
2023/07/20 03:01:45;;;;;;;3.30;1.90;;;;;;;;;;5071709;28;20120;-68
2023/07/20 03:04:13;;;;;;;3.97;1.92;;;;;;;;;;5081589;28;20904;-68
2023/07/20 03:06:40;;;;;;;2.92;2.08;;;;;;;;;;5058747;28;20049;-68
2023/07/20 03:09:09;;;;;;;2.53;1.98;;;;;;;;;;5072658;28;20053;-68
2023/07/20 03:11:36;;;;;;;2.38;1.95;;;;;;;;;;5072203;28;20612;-68
2023/07/20 03:14:04;;;;;;;4.25;2.10;;;;;;;;;;5079773;28;20489;-68
2023/07/20 03:16:32;;;;;;;2.97;1.98;;;;;;;;;;5064215;28;20110;-68
2023/07/20 03:19:00;;;;;;;2.97;2.20;;;;;;;;;;5074391;28;20744;-68
2023/07/20 03:21:28;;;;;;;4.70;2.33;;;;;;;;;;5079221;28;20044;-68
2023/07/20 03:23:56;;;;;;;3.00;2.10;;;;;;;;;;5087288;28;20057;-68
2023/07/20 03:26:23;;;;;;;3.22;2.20;;;;;;;;;;5038612;28;20827;-68
2023/07/20 03:28:50;;;;;;;3.00;2.17;;;;;;;;;;5053151;28;20107;-68
2023/07/20 03:31:18;;;;;;;3.33;2.20;;;;;;;;;;5053777;28;20044;-68
2023/07/20 03:33:45;;;;;;;4.07;2.40;;;;;;;;;;5069123;28;20489;-68
2023/07/20 03:36:12;;;;;;;3.08;2.10;;;;;;;;;;5082852;28;20063;-68
2023/07/20 03:38:39;;;;;;;3.30;2.10;;;;;;;;;;5074741;28;20324;-68
2023/07/20 03:41:06;;;;;;;3.10;2.13;;;;;;;;;;5080391;28;20044;-68
2023/07/20 03:43:34;;;;;;;3.65;2.20;;;;;;;;;;5082075;28;20056;-68
2023/07/20 03:46:06;;;;;;;3.63;2.08;;;;;;;;;;5079118;28;20061;-68
2023/07/20 03:48:34;;;;;;;3.00;2.10;;;;;;;;;;5076573;28;20080;-68
2023/07/20 03:51:01;;;;;;;2.35;2.03;;;;;;;;;;5067696;28;20052;-68
2023/07/20 03:53:29;;;;;;;3.88;2.10;;;;;;;;;;5076335;28;20048;-68
2023/07/20 03:55:56;;;;;;;2.88;2.10;;;;;;;;;;5074788;28;20596;-68
2023/07/20 03:58:23;;;;;;;3.92;2.30;;;;;;;;;;5077555;28;20049;-68
2023/07/20 04:00:51;;;;;;;4.85;2.20;;;;;;;;;;5077957;28;20519;-68
2023/07/20 04:03:19;;;;;;;4.32;2.13;;;;;;;;;;5087261;28;20045;-68
2023/07/20 04:05:46;;;;;;;3.13;2.30;;;;;;;;;;5073305;28;20140;-68
2023/07/20 04:08:13;;;;;;;3.20;2.47;;;;;;;;;;5070294;28;20044;-68
2023/07/20 04:10:44;;;;;;;4.43;2.78;;;;;;;;;;5078573;28;20064;-68
2023/07/20 04:13:11;;;;;;;9.18;3.38;;;;;;;;;;5079192;28;20045;-68
2023/07/20 04:15:39;;;;;;;4.18;2.70;;;;;;;;;;5079862;28;20155;-68
2023/07/20 04:18:06;;;;;;;7.25;2.65;;;;;;;;;;5075601;28;20055;-68
2023/07/20 04:20:33;;;;;;;5.18;2.80;;;;;;;;;;5074158;28;20501;-67
2023/07/20 04:23:00;;;;;;;3.60;2.28;;;;;;;;;;5056609;28;20055;-68
2023/07/20 04:25:28;;;;;;;2.90;2.33;;;;;;;;;;5056035;28;20547;-68
2023/07/20 04:27:55;;;;;;;6.00;2.75;;;;;;;;;;5054882;28;20052;-68
2023/07/20 04:30:23;;;;;;;5.18;2.60;;;;;;;;;;5056410;28;20048;-68
2023/07/20 04:32:50;;;;;;;4.20;2.25;;;;;;;;;;5078101;28;20044;-68
2023/07/20 04:35:18;;;;;;;6.30;2.50;;;;;;;;;;5064389;28;20055;-68
2023/07/20 04:37:46;;;;;;;3.10;2.45;;;;;;;;;;5078920;28;20459;-68
2023/07/20 04:40:16;;;;;;;4.20;2.50;;;;;;;;;;5082769;28;20048;-68
2023/07/20 04:42:43;;;;;;;3.97;2.90;;;;;;;;;;5080740;28;20942;-68
2023/07/20 04:45:10;;;;;;;5.00;3.22;;;;;;;;;;5076742;28;20045;-68
2023/07/20 04:47:37;;;;;;;4.57;3.10;;;;;;;;;;5075563;28;20055;-68
2023/07/20 04:50:05;;;;;;;6.93;3.40;;;;;;;;;;5072067;28;20075;-68
2023/07/20 04:52:32;;;;;;;8.95;3.70;;;;;;;;;;5073823;28;20045;-68
2023/07/20 04:55:09;;;;;;;6.22;3.75;;;;;;;;;;5081601;28;20090;-68
2023/07/20 04:57:36;;;;;;;5.57;3.17;;;;;;;;;;5077104;28;20048;-68
2023/07/20 05:00:03;;;;;;;7.38;3.67;;;;;;;;;;5077269;28;20129;-68
2023/07/20 05:02:30;;;;;;;5.32;3.47;;;;;;;;;;5078564;28;20103;-68
2023/07/20 05:04:58;;;;;;;9.80;3.90;;;;;;;;;;5087323;28;20044;-68
2023/07/20 05:07:25;;;;;;;4.63;3.28;;;;;;;;;;5067097;28;20048;-68
2023/07/20 05:09:52;;;;;;;5.93;4.00;;;;;;;;;;5073527;28;20052;-68
2023/07/20 05:12:20;;;;;;;6.18;4.10;;;;;;;;;;5080149;28;20160;-68
2023/07/20 05:14:47;;;;;;;5.95;4.18;;;;;;;;;;5085537;28;20884;-68
2023/07/20 05:17:14;;;;;;;7.13;4.25;;;;;;;;;;5071816;28;20084;-68
2023/07/20 05:19:41;;;;;;;6.55;4.60;;;;;;;;;;5054804;28;20053;-68
2023/07/20 05:22:12;;;;;;;6.28;4.20;;;;;;;;;;5054250;28;21257;-68
2023/07/20 05:24:39;;;;;;;5.18;3.95;;;;;;;;;;5080552;28;20118;-67
2023/07/20 05:27:06;;;;;;;8.50;4.30;;;;;;;;;;5072636;28;20075;-67
2023/07/20 05:29:33;;;;;;;6.82;4.55;;;;;;;;;;5077932;28;20107;-68
2023/07/20 05:32:00;;;;;;;5.68;4.40;;;;;;;;;;5076068;28;20103;-68
2023/07/20 05:34:28;;;;;;;6.40;4.55;;;;;;;;;;5083634;28;20140;-68
2023/07/20 05:36:55;;;;;;;7.13;4.78;;;;;;;;;;5080838;28;20054;-68
2023/07/20 05:39:22;;;;;;;6.82;4.43;;;;;;;;;;5079134;28;20047;-67
2023/07/20 05:41:49;;;;;;;7.28;4.07;;;;;;;;;;5078093;28;20045;-68
2023/07/20 05:44:17;;;;;;;5.30;4.20;;;;;;;;;;5074800;28;20049;-68
2023/07/20 05:46:44;;;;;;;5.63;3.90;;;;;;;;;;5061139;28;20940;-68
2023/07/20 05:49:23;;;;;;;5.45;3.60;;;;;;;;;;5070943;28;20304;-68
2023/07/20 05:51:50;;;;;;;5.38;3.38;;;;;;;;;;5072989;28;20528;-68
2023/07/20 05:54:18;;;;;;;8.35;3.97;;;;;;;;;;5060768;28;20049;-68
2023/07/20 05:56:46;;;;;;;7.93;3.20;;;;;;;;;;5051897;28;20056;-68
2023/07/20 05:59:14;;;;;;;6.13;3.10;;;;;;;;;;5085152;28;20490;-68
2023/07/20 06:01:41;;;;;;;6.22;3.53;;;;;;;;;;5071438;28;20133;-68
2023/07/20 06:04:08;;;;;;;5.03;3.13;;;;;;;;;;5069687;28;20583;-68
2023/07/20 06:06:36;;;;;;;6.82;3.20;;;;;;;;;;5070138;28;20053;-68
2023/07/20 06:09:04;;;;;;;4.68;2.83;;;;;;;;;;5076457;28;20103;-68
2023/07/20 06:11:31;;;;;;;5.72;2.83;;;;;;;;;;5074016;28;20053;-68
2023/07/20 06:13:58;;;;;;;6.13;3.30;;;;;;;;;;5060534;28;20654;-68
2023/07/20 06:16:25;;;;;;;5.13;3.15;;;;;;;;;;5029169;28;20138;-68
2023/07/20 06:18:53;;;;;;;5.18;2.60;;;;;;;;;;5047453;28;20102;-68
2023/07/20 06:21:20;;;;;;;4.15;2.40;;;;;;;;;;5057247;28;20161;-68
2023/07/20 06:23:47;;;;;;;5.45;2.63;;;;;;;;;;5074827;28;20161;-68
2023/07/20 06:26:15;;;;;;;5.65;2.20;;;;;;;;;;5055537;28;20061;-68
2023/07/20 06:28:42;;;;;;;4.50;2.33;;;;;;;;;;5066979;28;20387;-68
2023/07/20 06:31:10;;;;;;;3.28;2.00;;;;;;;;;;5070838;28;20044;-68
2023/07/20 06:33:38;;;;;;;3.63;2.15;;;;;;;;;;5066739;28;20561;-68
2023/07/20 06:36:05;;;;;;;3.42;2.25;;;;;;;;;;5072032;28;20634;-68
2023/07/20 06:38:32;;;;;;;6.68;2.63;;;;;;;;;;5071980;28;20078;-68
2023/07/20 06:40:59;;;;;;;5.40;2.38;;;;;;;;;;5071337;28;20099;-68
2023/07/20 06:43:46;;;;;;;4.60;2.38;;;;;;;;;;5065281;28;20057;-68
2023/07/20 06:46:16;;;;;;;5.18;2.30;;;;;;;;;;5074918;28;20132;-68
